首页
METAR-TAF:

METAR-TAF

机场 :

卡尔维, 法国

纬度: 42-32N, 经度: 008-48E, 海拔: 64米

当前天气观测

该预报发布于32分钟前的01:00 UTC
风速4节,风向南转西南
温度 9°C
湿度 66%
气压 1026 hPa
能见度10公里或以上
1500米以下无云,无积雨云

METAR: LFKC 070100Z AUTO 20004KT CAVOK 09/03 Q1026

时间: 03:32 (01:32 UTC)

预报

该预报发布于23小时和32分钟前的02:00 UTC
预报有效从06日的 03点(UTC)到 07日的 03点(UTC)
风速5节,风向
能见度10公里或以上
1500米以下无云,无积雨云
成为
从 06日的 07点(UTC)到 06日的 10点(UTC)
风速10节,风向
成为
从 06日的 17点(UTC)到 06日的 20点(UTC)
风速4节,风向

TAF: LFKC 060200Z 0603/0703 18005KT CAVOK TX20/0612Z TN07/0603Z BECMG 0607/0610 35010KT BECMG 0617/0620 18004KT

超过4000个机场的气象观测和天气预报(METAR&TAF报告)。

可查询的气象台以黄色和红色小点在地图上表示。

将鼠标移到小点上方,可查看气象台名称。

然后点击查看天气观测和预报。

如需切换地图:点击带黑十字的绿色按钮放大地图;点击带横线的绿色按钮缩小地图;或者点击绿色箭头查看邻近地区的地图。


METAR-TAF: